createdAt,value
2023-03-29T00:02:19.918Z,100982.84
2023-03-29T00:04:47.524Z,100988.88
2023-03-29T00:07:14.691Z,100978.44
2023-03-29T00:09:42.557Z,100986.97
2023-03-29T00:12:11.696Z,100979.34
2023-03-29T00:14:38.890Z,100978.53
2023-03-29T00:17:06.544Z,100983.81
2023-03-29T00:19:36.770Z,100970.84
2023-03-29T00:22:06.276Z,100973.53
2023-03-29T00:24:33.901Z,100978.88
2023-03-29T00:27:01.128Z,100981.63
2023-03-29T00:29:28.598Z,100985.03
2023-03-29T00:31:56.440Z,100972.03
2023-03-29T00:34:24.744Z,100980.72
2023-03-29T00:36:53.062Z,100980.75
2023-03-29T00:39:21.039Z,100983.41
2023-03-29T00:41:49.413Z,100986.94
2023-03-29T00:44:54.237Z,100987.81
2023-03-29T00:47:45.769Z,100979.34
2023-03-29T00:50:45.913Z,100977.72
2023-03-29T00:53:33.921Z,100979.72
2023-03-29T00:56:14.224Z,100978.16
2023-03-29T00:58:47.502Z,100981.72
2023-03-29T01:01:17.930Z,100971.75
2023-03-29T01:03:54.755Z,100957.94
2023-03-29T01:06:24.889Z,100963.25
2023-03-29T01:08:58.660Z,100957.22
2023-03-29T01:11:33.083Z,100954.63
2023-03-29T01:14:06.915Z,100950.56
2023-03-29T01:16:38.422Z,100936.22
2023-03-29T01:19:09.449Z,100940.94
2023-03-29T01:21:43.729Z,100936.16
2023-03-29T01:24:26.438Z,100946.34
2023-03-29T01:27:25.675Z,100937.03
2023-03-29T01:30:01.194Z,100943.94
2023-03-29T01:32:35.453Z,100942.00
2023-03-29T01:35:10.579Z,100941.97
2023-03-29T01:37:45.829Z,100951.47
2023-03-29T01:40:14.501Z,100941.03
2023-03-29T01:42:46.793Z,100944.47
2023-03-29T01:45:25.108Z,100955.00
2023-03-29T01:48:04.552Z,100948.94
2023-03-29T01:50:51.076Z,100941.87
2023-03-29T01:53:28.878Z,100937.69
2023-03-29T01:56:00.530Z,100940.31
2023-03-29T01:58:33.910Z,100939.50
2023-03-29T02:01:05.893Z,100940.31
2023-03-29T02:03:42.441Z,100938.66
2023-03-29T02:06:14.761Z,100939.50
2023-03-29T02:08:42.775Z,100949.28
2023-03-29T02:11:10.160Z,100942.44
2023-03-29T02:13:37.739Z,100940.62
2023-03-29T02:16:12.616Z,100939.66
2023-03-29T02:18:41.904Z,100955.28
2023-03-29T02:21:21.347Z,100952.72
2023-03-29T02:23:50.098Z,100950.25
2023-03-29T02:26:17.985Z,100947.84
2023-03-29T02:28:45.873Z,100956.28
2023-03-29T02:31:24.314Z,100949.53
2023-03-29T02:33:58.752Z,100945.06
2023-03-29T02:36:29.757Z,100944.88
2023-03-29T02:38:59.502Z,100946.63
2023-03-29T02:41:27.724Z,100952.69
2023-03-29T02:43:56.805Z,100950.22
2023-03-29T02:46:27.985Z,100951.13
2023-03-29T02:48:57.440Z,100956.72
2023-03-29T02:51:31.434Z,100952.56
2023-03-29T02:54:14.002Z,100960.50
2023-03-29T02:56:49.934Z,100965.78
2023-03-29T02:59:19.535Z,100956.34
2023-03-29T03:01:46.920Z,100962.47
2023-03-29T03:04:15.448Z,100958.13
2023-03-29T03:06:44.340Z,100959.97
2023-03-29T03:09:11.844Z,100965.41
2023-03-29T03:11:40.606Z,100970.69
2023-03-29T03:14:08.324Z,100967.12
2023-03-29T03:16:37.174Z,100970.59
2023-03-29T03:19:05.097Z,100974.97
2023-03-29T03:21:33.674Z,100970.69
2023-03-29T03:24:00.944Z,100974.25
2023-03-29T03:26:30.182Z,100974.22
2023-03-29T03:28:58.340Z,100973.41
2023-03-29T03:31:33.625Z,100976.91
2023-03-29T03:34:03.385Z,100979.47
2023-03-29T03:36:31.674Z,100972.47
2023-03-29T03:38:58.851Z,100976.69
2023-03-29T03:41:26.425Z,100984.50
2023-03-29T03:43:54.517Z,100991.41
2023-03-29T03:46:22.254Z,100989.75
2023-03-29T03:48:50.528Z,100990.56
2023-03-29T03:51:18.479Z,100991.38
2023-03-29T03:53:46.031Z,100992.69
2023-03-29T03:56:16.548Z,100990.13
2023-03-29T03:58:44.440Z,100992.75
2023-03-29T04:01:11.936Z,100981.66
2023-03-29T04:03:39.726Z,100980.81
2023-03-29T04:06:07.707Z,100987.88
2023-03-29T04:08:36.168Z,100987.88
2023-03-29T04:11:05.098Z,100989.63
2023-03-29T04:13:34.881Z,100987.88
2023-03-29T04:16:04.084Z,100988.72
2023-03-29T04:18:32.395Z,100979.09
2023-03-29T04:21:00.127Z,100977.44
2023-03-29T04:23:28.640Z,100983.31
2023-03-29T04:25:57.136Z,100978.91
2023-03-29T04:28:26.152Z,100987.38
2023-03-29T04:30:53.862Z,100989.91
2023-03-29T04:33:21.715Z,100992.25
2023-03-29T04:35:49.451Z,100997.22
2023-03-29T04:38:17.139Z,100996.84
2023-03-29T04:40:45.150Z,101000.09
2023-03-29T04:43:12.504Z,101012.00
2023-03-29T04:45:41.749Z,101007.44
2023-03-29T04:48:09.637Z,100999.47
2023-03-29T04:50:38.599Z,101005.28
2023-03-29T04:53:07.573Z,101005.84
2023-03-29T04:55:35.342Z,101010.56
2023-03-29T04:58:02.944Z,101011.38
2023-03-29T05:00:31.420Z,101009.38
2023-03-29T05:03:01.537Z,101009.13
2023-03-29T05:05:29.451Z,101008.88
2023-03-29T05:07:57.198Z,101011.25
2023-03-29T05:10:25.837Z,101012.72
2023-03-29T05:12:54.222Z,101010.03
2023-03-29T05:15:22.640Z,101014.38
2023-03-29T05:17:50.290Z,101012.34
2023-03-29T05:20:17.696Z,101006.34
2023-03-29T05:22:45.258Z,101012.09
2023-03-29T05:25:14.095Z,101010.06
2023-03-29T05:27:42.515Z,101012.50
2023-03-29T05:30:10.729Z,101011.94
2023-03-29T05:32:38.892Z,101006.25
2023-03-29T05:35:06.943Z,101005.72
2023-03-29T05:37:34.601Z,101010.91
2023-03-29T05:40:10.326Z,101005.94
2023-03-29T05:42:38.923Z,101006.47
2023-03-29T05:45:07.764Z,101010.59
2023-03-29T05:47:35.429Z,101013.31
2023-03-29T05:50:02.924Z,101009.59
2023-03-29T05:52:31.024Z,101012.03
2023-03-29T05:54:58.332Z,101024.72
2023-03-29T05:57:26.102Z,101023.16
2023-03-29T05:59:55.024Z,101025.69
2023-03-29T06:02:22.925Z,101025.03
2023-03-29T06:04:51.759Z,101024.19
2023-03-29T06:07:24.593Z,101028.16
2023-03-29T06:09:54.773Z,101026.75
2023-03-29T06:12:24.825Z,101024.50
2023-03-29T06:14:53.236Z,101032.94
2023-03-29T06:17:21.073Z,101032.78
2023-03-29T06:19:48.648Z,101032.19
2023-03-29T06:22:16.530Z,101037.41
2023-03-29T06:24:44.095Z,101045.91
2023-03-29T06:27:13.330Z,101047.50
2023-03-29T06:29:41.312Z,101056.91
2023-03-29T06:32:08.963Z,101063.44
2023-03-29T06:34:39.643Z,101059.84
2023-03-29T06:37:08.559Z,101063.16
2023-03-29T06:39:36.204Z,101060.19
2023-03-29T06:42:20.200Z,101059.81
2023-03-29T06:44:49.777Z,101053.56
2023-03-29T06:47:18.074Z,101056.78
2023-03-29T06:49:45.657Z,101052.06
2023-03-29T06:52:13.752Z,101051.97
2023-03-29T06:54:41.391Z,101054.88
2023-03-29T06:57:08.848Z,101058.88
2023-03-29T06:59:36.430Z,101063.91
2023-03-29T07:02:03.782Z,101059.97
2023-03-29T07:04:32.467Z,101068.72
2023-03-29T07:07:01.985Z,101070.69
2023-03-29T07:09:30.312Z,101072.25
2023-03-29T07:12:01.512Z,101066.12
2023-03-29T07:14:30.115Z,101077.47
2023-03-29T07:17:01.522Z,101079.41
2023-03-29T07:19:30.446Z,101086.66
2023-03-29T07:21:58.874Z,101075.16
2023-03-29T07:24:26.636Z,101083.72
2023-03-29T07:27:03.311Z,101091.31
2023-03-29T07:29:32.250Z,101085.94
2023-03-29T07:32:00.340Z,101099.38
2023-03-29T07:34:30.187Z,101095.63
2023-03-29T07:36:58.129Z,101096.84
2023-03-29T07:39:26.352Z,101096.69
2023-03-29T07:41:58.045Z,101092.91
2023-03-29T07:44:27.108Z,101099.28
2023-03-29T07:46:55.522Z,101094.19
2023-03-29T07:49:22.924Z,101097.75
2023-03-29T07:51:50.499Z,101102.41
2023-03-29T07:54:19.045Z,101097.78
2023-03-29T07:56:47.835Z,101100.19
2023-03-29T07:59:16.669Z,101094.06
2023-03-29T08:01:44.858Z,101092.69
2023-03-29T08:04:13.140Z,101100.88
2023-03-29T08:06:43.548Z,101102.84
2023-03-29T08:09:13.804Z,101098.94
2023-03-29T08:11:42.561Z,101104.28
2023-03-29T08:14:12.475Z,101104.28
2023-03-29T08:16:41.989Z,101103.31
2023-03-29T08:19:10.430Z,101105.50
2023-03-29T08:21:39.663Z,101107.09
2023-03-29T08:24:08.100Z,101099.56
2023-03-29T08:26:36.437Z,101099.50
2023-03-29T08:29:04.874Z,101095.56
2023-03-29T08:31:33.783Z,101105.84
2023-03-29T08:34:01.269Z,101096.56
2023-03-29T08:36:30.509Z,101095.94
2023-03-29T08:38:58.973Z,101083.81
2023-03-29T08:42:05.105Z,101098.50
2023-03-29T08:44:46.396Z,101096.12
2023-03-29T08:47:23.222Z,101088.59
2023-03-29T08:49:53.607Z,101084.78
2023-03-29T08:52:38.516Z,101085.28
2023-03-29T08:55:19.080Z,101081.88
2023-03-29T08:57:49.031Z,101074.91
2023-03-29T09:00:22.754Z,101068.03
2023-03-29T09:02:52.013Z,101068.78
2023-03-29T09:05:23.141Z,101067.22
2023-03-29T09:07:51.828Z,101069.59
2023-03-29T09:10:22.393Z,101067.69
2023-03-29T09:13:08.371Z,101049.34
2023-03-29T09:16:01.293Z,101062.78
2023-03-29T09:18:41.927Z,101052.44
2023-03-29T09:21:17.657Z,101049.84
2023-03-29T09:23:55.345Z,101045.75
2023-03-29T09:26:50.885Z,101043.16
2023-03-29T09:29:32.814Z,101050.47
2023-03-29T09:32:03.066Z,101045.28
2023-03-29T09:34:41.164Z,101046.22
2023-03-29T09:37:22.030Z,101045.75
2023-03-29T09:39:53.165Z,101035.53
2023-03-29T09:42:21.733Z,101043.84
2023-03-29T09:44:52.990Z,101039.41
2023-03-29T09:47:32.109Z,101035.88
2023-03-29T09:50:05.177Z,101032.22
2023-03-29T09:52:32.862Z,101024.66
2023-03-29T09:55:02.224Z,101029.06
2023-03-29T09:57:31.809Z,101032.72
2023-03-29T10:00:01.902Z,101039.75
2023-03-29T10:02:30.786Z,101030.59
2023-03-29T10:05:04.090Z,101016.06
2023-03-29T10:07:55.595Z,101010.13
2023-03-29T10:10:28.170Z,101006.31
2023-03-29T10:13:00.688Z,101002.87
2023-03-29T10:15:30.488Z,101003.16
2023-03-29T10:18:05.786Z,100987.16
2023-03-29T10:20:38.573Z,100984.53
2023-03-29T10:23:08.233Z,100989.75
2023-03-29T10:25:42.606Z,100989.97
2023-03-29T10:28:17.624Z,100984.69
2023-03-29T10:30:48.768Z,100981.84
2023-03-29T10:33:19.184Z,100981.75
2023-03-29T10:35:47.008Z,100987.47
2023-03-29T10:38:17.559Z,100977.97
2023-03-29T10:40:51.888Z,100974.56
2023-03-29T10:43:24.789Z,100977.91
2023-03-29T10:45:56.928Z,100968.75
2023-03-29T10:48:29.571Z,100971.81
2023-03-29T10:51:08.293Z,100973.13
2023-03-29T10:53:36.791Z,100967.81
2023-03-29T10:56:29.932Z,100963.56
2023-03-29T10:59:22.109Z,100960.62
2023-03-29T11:02:11.617Z,100959.97
2023-03-29T11:05:00.572Z,100964.66
2023-03-29T11:07:52.331Z,100958.41
2023-03-29T11:10:55.325Z,100954.06
2023-03-29T11:13:25.400Z,100951.13
2023-03-29T11:15:55.901Z,100952.19
2023-03-29T11:18:41.911Z,100934.41
2023-03-29T11:21:51.229Z,100947.84
2023-03-29T11:24:34.027Z,100926.84
2023-03-29T11:27:08.054Z,100937.12
2023-03-29T11:30:06.513Z,100940.03
2023-03-29T11:32:53.265Z,100934.12
2023-03-29T11:35:29.717Z,100933.97
2023-03-29T11:38:15.557Z,100926.94
2023-03-29T11:41:16.272Z,100926.44
2023-03-29T11:44:01.753Z,100907.41
2023-03-29T11:46:34.191Z,100923.84
2023-03-29T11:49:01.761Z,100914.56
2023-03-29T11:51:33.956Z,100907.72
2023-03-29T11:54:06.693Z,100899.91
2023-03-29T11:56:42.657Z,100903.41
2023-03-29T11:59:14.894Z,100914.34
2023-03-29T12:01:53.151Z,100903.34
2023-03-29T12:04:32.917Z,100889.03
2023-03-29T12:07:34.400Z,100890.28
2023-03-29T12:10:08.719Z,100883.88
2023-03-29T12:12:46.055Z,100882.84
2023-03-29T12:15:22.858Z,100881.31
2023-03-29T12:18:14.174Z,100875.28
2023-03-29T12:20:42.285Z,100871.56
2023-03-29T12:23:13.422Z,100860.59
2023-03-29T12:25:41.663Z,100849.63
2023-03-29T12:28:41.393Z,100852.12
2023-03-29T12:31:22.256Z,100864.25
2023-03-29T12:33:52.648Z,100859.63
2023-03-29T12:37:02.090Z,100859.00
2023-03-29T12:39:35.975Z,100852.09
2023-03-29T12:42:12.712Z,100851.25
2023-03-29T12:44:58.553Z,100851.16
2023-03-29T12:47:31.694Z,100841.97
2023-03-29T12:50:01.558Z,100837.16
2023-03-29T12:52:34.226Z,100843.34
2023-03-29T12:55:05.916Z,100841.28
2023-03-29T12:57:42.782Z,100831.84
2023-03-29T13:00:19.267Z,100825.62
2023-03-29T13:03:00.621Z,100829.84
2023-03-29T13:05:35.290Z,100830.44
2023-03-29T13:08:23.672Z,100834.75
2023-03-29T13:10:53.967Z,100823.87
2023-03-29T13:13:26.036Z,100826.06
2023-03-29T13:15:53.923Z,100813.97
2023-03-29T13:18:49.412Z,100808.34
2023-03-29T13:21:20.187Z,100814.97
2023-03-29T13:24:29.068Z,100822.03
2023-03-29T13:27:07.021Z,100812.19
2023-03-29T13:29:55.156Z,100800.97
2023-03-29T13:32:58.776Z,100802.03
2023-03-29T13:35:37.933Z,100794.44
2023-03-29T13:38:20.813Z,100798.28
2023-03-29T13:40:54.580Z,100787.66
2023-03-29T13:43:31.393Z,100793.22
2023-03-29T13:45:58.781Z,100787.13
2023-03-29T13:48:30.143Z,100793.84
2023-03-29T13:51:05.161Z,100780.66
2023-03-29T13:53:39.830Z,100780.03
2023-03-29T13:56:12.267Z,100784.69
2023-03-29T13:58:39.805Z,100780.28
2023-03-29T14:01:13.536Z,100778.06
2023-03-29T14:03:45.062Z,100779.34
2023-03-29T14:06:26.057Z,100779.81
2023-03-29T14:08:54.200Z,100775.97
2023-03-29T14:11:24.993Z,100769.81
2023-03-29T14:13:57.774Z,100764.78
2023-03-29T14:16:32.028Z,100762.37
2023-03-29T14:19:22.107Z,100768.00
2023-03-29T14:21:53.271Z,100767.16
2023-03-29T14:24:28.728Z,100764.03
2023-03-29T14:26:56.726Z,100761.16
2023-03-29T14:29:25.595Z,100764.50
2023-03-29T14:31:52.941Z,100755.03
2023-03-29T14:34:20.758Z,100752.97
2023-03-29T14:36:49.105Z,100754.53
2023-03-29T14:39:21.718Z,100755.16
2023-03-29T14:41:54.029Z,100756.09
2023-03-29T14:44:22.632Z,100747.66
2023-03-29T14:46:50.173Z,100744.78
2023-03-29T14:49:20.013Z,100750.69
2023-03-29T14:51:48.290Z,100742.88
2023-03-29T14:54:22.263Z,100743.81
2023-03-29T14:56:50.704Z,100728.44
2023-03-29T14:59:29.725Z,100741.44
2023-03-29T15:01:57.106Z,100737.56
2023-03-29T15:04:33.114Z,100736.38
2023-03-29T15:07:00.482Z,100730.84
2023-03-29T15:09:32.616Z,100731.06
2023-03-29T15:12:01.013Z,100724.41
2023-03-29T15:14:34.117Z,100721.19
2023-03-29T15:17:03.860Z,100728.84
2023-03-29T15:19:59.449Z,100726.13
2023-03-29T15:22:33.557Z,100718.47
2023-03-29T15:25:18.348Z,100715.97
2023-03-29T15:31:19.332Z,100716.50
2023-03-29T15:33:47.544Z,100716.50
2023-03-29T15:36:23.258Z,100717.16
2023-03-29T15:38:51.146Z,100716.47
2023-03-29T15:44:48.732Z,100708.16
2023-03-29T15:47:16.233Z,100697.91
2023-03-29T15:49:43.408Z,100695.44
2023-03-29T15:52:10.627Z,100698.84
2023-03-29T15:54:38.274Z,100694.03
2023-03-29T15:57:07.873Z,100697.19
2023-03-29T15:59:36.556Z,100694.94
2023-03-29T16:02:04.786Z,100690.91
2023-03-29T16:08:02.294Z,100691.91
2023-03-29T16:14:00.526Z,100682.84
2023-03-29T16:16:28.056Z,100683.41
2023-03-29T16:18:55.253Z,100683.22
2023-03-29T16:28:41.272Z,100678.28
2023-03-29T16:31:30.150Z,100674.31
2023-03-29T16:33:59.967Z,100675.78
2023-03-29T16:36:31.083Z,100671.25
2023-03-29T16:39:10.726Z,100674.09
2023-03-29T16:45:15.903Z,100664.84
2023-03-29T16:47:44.487Z,100674.53
2023-03-29T16:53:37.319Z,100682.97
2023-03-29T16:59:20.088Z,100691.97
2023-03-29T17:01:47.713Z,100680.72
2023-03-29T17:04:14.930Z,100685.13
2023-03-29T17:10:13.096Z,100676.28
2023-03-29T17:12:40.918Z,100681.56
2023-03-29T17:15:11.432Z,100670.59
2023-03-29T17:17:41.484Z,100675.62
2023-03-29T17:20:12.333Z,100666.56
2023-03-29T17:22:40.563Z,100679.03
2023-03-29T17:25:09.105Z,100677.41
2023-03-29T17:34:24.005Z,100680.59
2023-03-29T17:36:53.653Z,100685.44
2023-03-29T17:42:59.980Z,100690.59
2023-03-29T17:49:03.687Z,100687.91
2023-03-29T17:51:50.720Z,100684.03
2023-03-29T17:54:18.594Z,100688.34
2023-03-29T18:00:17.386Z,100690.06
2023-03-29T18:02:46.465Z,100699.75
2023-03-29T18:09:08.444Z,100697.66
2023-03-29T18:11:41.620Z,100697.56
2023-03-29T18:17:09.141Z,100711.09
2023-03-29T18:19:39.728Z,100709.00
2023-03-29T18:22:07.366Z,100720.09
2023-03-29T18:32:00.213Z,100710.34
2023-03-29T18:34:30.446Z,100719.75
2023-03-29T18:36:59.043Z,100720.41
2023-03-29T18:39:27.915Z,100718.41
2023-03-29T18:45:28.788Z,100717.00
2023-03-29T18:51:28.791Z,100716.91
2023-03-29T18:54:18.068Z,100717.56
2023-03-29T19:00:18.029Z,100725.19
2023-03-29T19:02:47.133Z,100718.13
2023-03-29T19:05:16.798Z,100714.00
2023-03-29T19:11:15.673Z,100720.31
2023-03-29T19:17:16.081Z,100733.53
2023-03-29T19:20:10.796Z,100730.44
2023-03-29T19:23:08.445Z,100724.50
2023-03-29T19:25:37.590Z,100714.28
2023-03-29T19:28:06.379Z,100720.56
2023-03-29T19:30:37.468Z,100715.41
2023-03-29T19:36:41.212Z,100720.66
2023-03-29T19:39:12.429Z,100731.06
2023-03-29T19:41:41.949Z,100726.47
2023-03-29T19:44:29.017Z,100719.72
2023-03-29T19:50:34.333Z,100726.94
2023-03-29T19:56:36.359Z,100717.84
2023-03-29T19:59:04.781Z,100711.66
2023-03-29T20:08:08.246Z,100710.81
2023-03-29T20:10:36.110Z,100712.00
2023-03-29T20:13:06.226Z,100712.88
2023-03-29T20:18:40.971Z,100705.44
2023-03-29T20:24:10.789Z,100703.50
2023-03-29T20:26:40.179Z,100703.75
2023-03-29T20:29:08.212Z,100710.34
2023-03-29T20:31:35.953Z,100703.88
2023-03-29T20:34:06.852Z,100711.84
2023-03-29T20:36:34.734Z,100707.50
2023-03-29T20:39:04.643Z,100699.06
2023-03-29T20:41:33.880Z,100699.72
2023-03-29T20:44:05.725Z,100696.44
2023-03-29T20:46:33.625Z,100693.25
2023-03-29T20:49:02.908Z,100690.63
2023-03-29T20:51:31.917Z,100689.69
2023-03-29T20:54:04.732Z,100697.56
2023-03-29T20:56:34.579Z,100691.56
2023-03-29T20:59:03.015Z,100691.47
2023-03-29T21:01:30.778Z,100687.16
2023-03-29T21:03:58.347Z,100681.59
2023-03-29T21:06:26.196Z,100685.38
2023-03-29T21:08:53.350Z,100680.97
2023-03-29T21:11:21.080Z,100681.81
2023-03-29T21:13:48.634Z,100685.53
2023-03-29T21:16:15.952Z,100675.41
2023-03-29T21:18:43.610Z,100683.75
2023-03-29T21:21:11.988Z,100687.31
2023-03-29T21:23:39.660Z,100676.12
2023-03-29T21:26:07.866Z,100675.16
2023-03-29T21:28:37.698Z,100674.37
2023-03-29T21:31:06.657Z,100664.66
2023-03-29T21:33:35.187Z,100666.81
2023-03-29T21:36:02.825Z,100670.03
2023-03-29T21:38:30.157Z,100666.75
2023-03-29T21:40:58.277Z,100667.84
2023-03-29T21:43:25.929Z,100662.44
2023-03-29T21:45:53.304Z,100668.69
2023-03-29T21:48:20.401Z,100674.59
2023-03-29T21:50:51.193Z,100676.47
2023-03-29T21:53:18.499Z,100668.69
2023-03-29T21:55:48.557Z,100665.28
2023-03-29T21:58:16.797Z,100668.44
2023-03-29T22:00:44.847Z,100669.38
2023-03-29T22:03:12.612Z,100663.94
2023-03-29T22:05:39.864Z,100666.25
2023-03-29T22:08:10.344Z,100668.34
2023-03-29T22:10:38.484Z,100661.72
2023-03-29T22:13:05.992Z,100658.38
2023-03-29T22:15:35.639Z,100658.59
2023-03-29T22:18:03.895Z,100675.44
2023-03-29T22:20:35.626Z,100676.63
2023-03-29T22:23:04.802Z,100681.06
2023-03-29T22:25:32.062Z,100683.53
2023-03-29T22:27:59.216Z,100677.37
2023-03-29T22:30:27.312Z,100672.22
2023-03-29T22:32:54.623Z,100672.88
2023-03-29T22:35:22.029Z,100675.59
2023-03-29T22:37:50.823Z,100674.75
2023-03-29T22:40:18.164Z,100667.81
2023-03-29T22:42:45.376Z,100672.13
2023-03-29T22:45:12.905Z,100674.41
2023-03-29T22:47:40.429Z,100678.44
2023-03-29T22:50:08.198Z,100682.59
2023-03-29T22:52:36.192Z,100677.37
2023-03-29T22:55:06.456Z,100686.91
2023-03-29T22:57:33.643Z,100673.72
2023-03-29T23:00:01.311Z,100681.84
2023-03-29T23:02:28.739Z,100678.06
2023-03-29T23:04:55.952Z,100676.97
2023-03-29T23:07:23.366Z,100673.25
2023-03-29T23:09:50.665Z,100668.03
2023-03-29T23:12:17.861Z,100674.94
2023-03-29T23:14:45.319Z,100674.75
2023-03-29T23:17:13.522Z,100670.97
2023-03-29T23:19:41.670Z,100663.94
2023-03-29T23:22:09.139Z,100661.41
2023-03-29T23:24:36.274Z,100672.34
2023-03-29T23:27:04.930Z,100671.06
2023-03-29T23:29:32.316Z,100669.97
2023-03-29T23:31:59.694Z,100671.41
2023-03-29T23:34:26.807Z,100669.53
2023-03-29T23:36:54.281Z,100676.19
2023-03-29T23:39:22.316Z,100672.88
2023-03-29T23:41:49.697Z,100673.56
2023-03-29T23:44:17.134Z,100669.66
2023-03-29T23:46:44.364Z,100670.59
2023-03-29T23:49:11.514Z,100666.94
2023-03-29T23:51:39.268Z,100668.72
2023-03-29T23:54:06.701Z,100664.25
2023-03-29T23:56:34.374Z,100662.72
2023-03-29T23:59:03.321Z,100659.34
